Time;durP1;ratioP1;P1;durP2;ratioP2;P2;SDS_P1;SDS_P2;PMS_P1;PMS_P2;Temp;Humidity;BMP_temperature;BMP_pressure;BME280_temperature;BME280_humidity;BME280_pressure;Samples;Min_cycle;Max_cycle;Signal;HPM_P1;HPM_P2
2022/11/21 00:01:15;;;;;;;25.23;5.88;;;;;;;;;;4987070;28;20285;-71
2022/11/21 00:03:40;;;;;;;22.07;5.10;;;;;;;;;;4985146;28;20023;-72
2022/11/21 00:06:06;;;;;;;19.80;4.10;;;;;;;;;;4989977;28;20657;-72
2022/11/21 00:08:31;;;;;;;25.52;4.78;;;;;;;;;;4984645;28;20309;-73
2022/11/21 00:10:59;;;;;;;33.42;4.82;;;;;;;;;;4998498;28;20109;-72
2022/11/21 00:13:25;;;;;;;28.75;6.97;;;;;;;;;;5000151;28;20022;-73
2022/11/21 00:15:50;;;;;;;21.48;4.80;;;;;;;;;;4994115;28;20081;-71
2022/11/21 00:18:15;;;;;;;26.80;5.28;;;;;;;;;;4995430;28;20102;-71
2022/11/21 00:20:41;;;;;;;30.30;3.97;;;;;;;;;;4995078;28;20093;-71
2022/11/21 00:23:06;;;;;;;18.52;4.63;;;;;;;;;;4992661;28;20022;-71
2022/11/21 00:25:31;;;;;;;27.15;4.38;;;;;;;;;;4992714;28;20026;-71
2022/11/21 00:27:57;;;;;;;22.30;4.40;;;;;;;;;;4998456;28;20026;-71
2022/11/21 00:30:22;;;;;;;37.00;5.97;;;;;;;;;;4991627;28;20030;-73
2022/11/21 00:32:47;;;;;;;27.38;4.68;;;;;;;;;;4989281;28;20459;-71
2022/11/21 00:35:12;;;;;;;38.23;6.77;;;;;;;;;;4982369;28;20029;-73
2022/11/21 00:37:37;;;;;;;19.73;3.50;;;;;;;;;;4982009;28;20278;-72
2022/11/21 00:40:03;;;;;;;21.35;4.25;;;;;;;;;;4988540;28;20093;-72
2022/11/21 00:42:28;;;;;;;31.20;4.40;;;;;;;;;;4982990;28;20502;-71
2022/11/21 00:44:53;;;;;;;24.42;5.35;;;;;;;;;;4985745;28;20129;-71
2022/11/21 00:47:18;;;;;;;25.70;5.13;;;;;;;;;;4981980;28;20027;-73
2022/11/21 00:49:43;;;;;;;27.97;4.63;;;;;;;;;;4988826;28;20642;-72
2022/11/21 00:52:09;;;;;;;25.45;6.35;;;;;;;;;;4981611;28;20324;-72
2022/11/21 00:54:34;;;;;;;23.07;4.80;;;;;;;;;;4986097;28;20014;-73
2022/11/21 00:56:59;;;;;;;25.05;5.68;;;;;;;;;;4980617;28;20763;-72
2022/11/21 00:59:24;;;;;;;37.58;7.43;;;;;;;;;;4981375;28;20114;-71
2022/11/21 01:01:49;;;;;;;35.60;5.80;;;;;;;;;;4983070;28;20402;-72
2022/11/21 01:04:15;;;;;;;32.35;5.60;;;;;;;;;;4982572;28;20030;-71
2022/11/21 01:06:40;;;;;;;28.33;5.33;;;;;;;;;;4986405;28;20471;-72
2022/11/21 01:09:05;;;;;;;26.00;5.53;;;;;;;;;;4987895;28;20273;-72
2022/11/21 01:11:30;;;;;;;28.80;4.88;;;;;;;;;;4982300;28;20019;-73
2022/11/21 01:13:56;;;;;;;32.42;4.93;;;;;;;;;;4987170;28;20105;-72
2022/11/21 01:16:22;;;;;;;31.42;4.60;;;;;;;;;;4983019;28;20019;-72
2022/11/21 01:18:48;;;;;;;34.63;4.70;;;;;;;;;;4981702;28;20033;-72
2022/11/21 01:21:15;;;;;;;31.70;6.07;;;;;;;;;;4983988;28;20014;-72
2022/11/21 01:23:40;;;;;;;36.90;5.35;;;;;;;;;;4986390;28;20084;-72
2022/11/21 01:26:06;;;;;;;28.67;4.53;;;;;;;;;;4985370;28;20026;-72
2022/11/21 01:28:32;;;;;;;38.55;5.95;;;;;;;;;;4983752;28;20080;-72
2022/11/21 01:31:04;;;;;;;29.33;5.43;;;;;;;;;;4983749;28;20406;-72
2022/11/21 01:33:29;;;;;;;33.58;6.03;;;;;;;;;;4985565;28;20487;-72
2022/11/21 01:35:54;;;;;;;29.98;4.85;;;;;;;;;;4988369;28;20022;-72
2022/11/21 01:38:20;;;;;;;27.67;6.13;;;;;;;;;;4984596;28;20081;-71
2022/11/21 01:40:45;;;;;;;35.20;6.72;;;;;;;;;;4989662;28;20777;-72
2022/11/21 01:43:11;;;;;;;29.03;5.00;;;;;;;;;;4984072;28;20026;-72
2022/11/21 01:46:06;;;;;;;31.85;7.03;;;;;;;;;;4989562;28;20343;-73
2022/11/21 01:48:34;;;;;;;20.80;5.05;;;;;;;;;;4975456;28;20506;-72
2022/11/21 01:51:07;;;;;;;27.50;6.88;;;;;;;;;;4987011;28;20022;-72
2022/11/21 01:53:33;;;;;;;29.52;5.30;;;;;;;;;;4987338;28;20113;-71
2022/11/21 01:55:58;;;;;;;27.38;5.97;;;;;;;;;;4989545;28;20028;-72
2022/11/21 01:58:24;;;;;;;28.17;6.63;;;;;;;;;;4986763;28;20019;-72
2022/11/21 02:00:49;;;;;;;20.00;5.50;;;;;;;;;;4987653;28;20434;-73
2022/11/21 02:03:16;;;;;;;34.67;8.80;;;;;;;;;;4985943;28;20033;-72
2022/11/21 02:05:41;;;;;;;21.02;5.95;;;;;;;;;;4986189;28;20022;-72
2022/11/21 02:08:13;;;;;;;41.95;6.38;;;;;;;;;;4987019;28;20532;-72
2022/11/21 02:10:41;;;;;;;31.02;6.43;;;;;;;;;;4987601;28;20479;-71
2022/11/21 02:13:06;;;;;;;21.48;6.65;;;;;;;;;;4985682;28;20097;-72
2022/11/21 02:15:31;;;;;;;26.50;5.88;;;;;;;;;;4988912;28;20023;-71
2022/11/21 02:17:56;;;;;;;33.08;6.28;;;;;;;;;;4986548;28;20206;-71
2022/11/21 02:20:23;;;;;;;29.17;6.50;;;;;;;;;;4983035;28;20039;-73
2022/11/21 02:23:09;;;;;;;28.55;6.28;;;;;;;;;;4988133;28;20026;-72
2022/11/21 02:25:38;;;;;;;29.42;7.72;;;;;;;;;;4986000;28;20446;-71
2022/11/21 02:28:07;;;;;;;33.40;6.88;;;;;;;;;;4987142;28;20100;-71
2022/11/21 02:30:35;;;;;;;37.17;6.55;;;;;;;;;;4986708;28;20106;-71
2022/11/21 02:33:00;;;;;;;30.38;10.27;;;;;;;;;;4984361;28;20054;-72
2022/11/21 02:35:25;;;;;;;30.67;9.13;;;;;;;;;;4986901;28;20046;-72
2022/11/21 02:37:56;;;;;;;32.90;8.57;;;;;;;;;;4984582;28;20094;-72
2022/11/21 02:40:21;;;;;;;;;;;;;;;;;;4985324;28;20023;-72
2022/11/21 02:42:49;;;;;;;28.02;10.57;;;;;;;;;;4986606;28;20262;-72
2022/11/21 02:45:23;;;;;;;35.75;13.25;;;;;;;;;;4983902;28;20049;-73
2022/11/21 02:47:50;;;;;;;34.67;15.40;;;;;;;;;;4986241;28;20387;-72
2022/11/21 02:50:22;;;;;;;38.75;16.70;;;;;;;;;;4990583;28;20026;-71
2022/11/21 02:52:48;;;;;;;45.67;17.52;;;;;;;;;;4988164;28;20026;-72
2022/11/21 02:55:14;;;;;;;42.75;16.63;;;;;;;;;;4985135;28;20022;-72
2022/11/21 02:57:40;;;;;;;49.08;20.15;;;;;;;;;;4984236;28;20100;-71
2022/11/21 03:00:05;;;;;;;41.55;18.52;;;;;;;;;;4984672;28;20061;-72
2022/11/21 03:02:30;;;;;;;50.45;19.55;;;;;;;;;;4984723;28;20030;-71
2022/11/21 03:04:56;;;;;;;55.10;21.43;;;;;;;;;;4985686;28;20018;-72
2022/11/21 03:07:21;;;;;;;54.80;21.40;;;;;;;;;;4984409;28;20337;-72
2022/11/21 03:09:46;;;;;;;50.65;20.02;;;;;;;;;;4986765;28;20031;-72
2022/11/21 03:12:11;;;;;;;52.67;20.85;;;;;;;;;;4983710;28;20026;-71
2022/11/21 03:14:36;;;;;;;49.30;19.43;;;;;;;;;;4985722;28;20108;-72
2022/11/21 03:17:03;;;;;;;50.88;20.65;;;;;;;;;;4982461;28;20277;-72
2022/11/21 03:19:28;;;;;;;54.00;21.23;;;;;;;;;;4986796;28;20029;-72
2022/11/21 03:21:53;;;;;;;50.92;21.17;;;;;;;;;;4986355;28;20022;-72
2022/11/21 03:24:18;;;;;;;51.13;21.23;;;;;;;;;;4985530;28;20142;-72
2022/11/21 03:26:43;;;;;;;55.53;21.87;;;;;;;;;;4986174;28;20022;-72
2022/11/21 03:29:09;;;;;;;47.97;20.20;;;;;;;;;;4982546;28;20591;-71
2022/11/21 03:31:34;;;;;;;55.50;21.30;;;;;;;;;;4982666;28;20277;-72
2022/11/21 03:33:59;;;;;;;65.72;23.52;;;;;;;;;;4985317;28;20281;-71
2022/11/21 03:36:24;;;;;;;54.60;22.25;;;;;;;;;;4983459;28;20022;-72
2022/11/21 03:38:49;;;;;;;55.90;22.15;;;;;;;;;;4985965;28;20025;-71
2022/11/21 03:41:30;;;;;;;64.75;22.52;;;;;;;;;;4986853;28;20473;-72
2022/11/21 03:43:55;;;;;;;;;;;;;;;;;;4984706;28;20390;-71
2022/11/21 03:46:20;;;;;;;57.40;24.67;;;;;;;;;;4982138;28;19910;-71
2022/11/21 03:48:45;;;;;;;68.03;23.37;;;;;;;;;;4983869;28;20476;-72
2022/11/21 03:51:11;;;;;;;67.60;26.33;;;;;;;;;;4982910;28;20277;-73
2022/11/21 03:53:36;;;;;;;68.28;23.88;;;;;;;;;;4983720;28;20022;-71
2022/11/21 03:56:01;;;;;;;69.50;23.50;;;;;;;;;;4985383;28;20064;-72
2022/11/21 03:58:26;;;;;;;64.35;24.92;;;;;;;;;;4985071;28;20321;-71
2022/11/21 04:00:51;;;;;;;75.88;24.70;;;;;;;;;;4984893;28;20014;-71
2022/11/21 04:03:17;;;;;;;64.73;25.63;;;;;;;;;;4982397;28;20030;-71
2022/11/21 04:05:43;;;;;;;73.18;25.88;;;;;;;;;;4985923;28;20627;-72
2022/11/21 04:08:08;;;;;;;67.43;24.10;;;;;;;;;;4984101;28;20030;-72
2022/11/21 04:10:33;;;;;;;59.63;22.13;;;;;;;;;;4984318;28;20507;-71
2022/11/21 04:12:58;;;;;;;65.47;22.92;;;;;;;;;;4983614;28;20364;-71
2022/11/21 04:15:23;;;;;;;57.97;23.08;;;;;;;;;;4984975;28;20019;-73
2022/11/21 04:17:49;;;;;;;58.97;23.57;;;;;;;;;;4985215;28;20011;-71
2022/11/21 04:20:14;;;;;;;68.88;25.00;;;;;;;;;;4982584;28;20308;-72
2022/11/21 04:22:39;;;;;;;61.78;23.23;;;;;;;;;;4983924;28;20076;-71
2022/11/21 04:25:05;;;;;;;66.03;23.07;;;;;;;;;;4980855;28;20256;-71
2022/11/21 04:27:30;;;;;;;69.80;24.13;;;;;;;;;;4982160;28;20278;-72
2022/11/21 04:29:55;;;;;;;64.40;23.93;;;;;;;;;;4984905;28;20010;-72
2022/11/21 04:32:20;;;;;;;73.77;24.07;;;;;;;;;;4983948;28;20776;-72
2022/11/21 04:34:45;;;;;;;68.00;23.38;;;;;;;;;;4981492;28;20278;-72
2022/11/21 04:37:11;;;;;;;73.77;25.13;;;;;;;;;;4983042;28;20030;-72
2022/11/21 04:39:36;;;;;;;68.50;23.42;;;;;;;;;;4983855;28;20300;-71
2022/11/21 04:42:01;;;;;;;75.93;25.70;;;;;;;;;;4982322;28;20014;-72
2022/11/21 04:44:27;;;;;;;76.03;26.07;;;;;;;;;;4985352;28;20384;-72
2022/11/21 04:46:52;;;;;;;75.35;26.63;;;;;;;;;;4981826;28;20274;-74
2022/11/21 04:49:17;;;;;;;82.20;26.70;;;;;;;;;;4983948;28;20404;-71
2022/11/21 04:51:42;;;;;;;70.20;26.58;;;;;;;;;;4984046;28;20014;-73
2022/11/21 04:54:09;;;;;;;74.47;25.58;;;;;;;;;;4982066;28;20105;-71
2022/11/21 04:56:35;;;;;;;79.28;27.63;;;;;;;;;;4985598;28;20050;-71
2022/11/21 04:59:00;;;;;;;77.47;25.15;;;;;;;;;;4986620;28;20022;-71
2022/11/21 05:01:25;;;;;;;81.75;27.42;;;;;;;;;;4985485;28;20464;-71
2022/11/21 05:03:51;;;;;;;78.05;26.58;;;;;;;;;;4988924;28;20545;-71
2022/11/21 05:06:16;;;;;;;79.60;25.55;;;;;;;;;;4988414;28;20034;-71
2022/11/21 05:08:41;;;;;;;80.70;28.10;;;;;;;;;;4986532;28;20101;-71
2022/11/21 05:13:51;;;;;;;79.40;28.20;;;;;;;;;;4984330;28;20293;-72
2022/11/21 05:16:16;;;;;;;95.82;26.42;;;;;;;;;;4985412;28;20085;-71
2022/11/21 05:18:42;;;;;;;71.07;24.63;;;;;;;;;;4983797;28;20019;-72
2022/11/21 05:21:07;;;;;;;77.13;26.80;;;;;;;;;;4985930;28;20292;-72
2022/11/21 05:23:32;;;;;;;84.40;29.07;;;;;;;;;;4989126;28;20274;-70
2022/11/21 05:25:58;;;;;;;89.13;27.38;;;;;;;;;;4991627;28;20281;-70
2022/11/21 05:28:23;;;;;;;80.82;27.35;;;;;;;;;;4992136;28;20029;-71
2022/11/21 05:30:48;;;;;;;75.85;27.67;;;;;;;;;;4990373;28;20026;-71
2022/11/21 05:33:14;;;;;;;89.95;26.50;;;;;;;;;;4975678;28;20061;-71
2022/11/21 05:35:39;;;;;;;70.75;24.08;;;;;;;;;;4989903;28;20073;-71
2022/11/21 05:38:04;;;;;;;87.28;27.27;;;;;;;;;;4989598;28;20479;-71
2022/11/21 05:40:29;;;;;;;82.07;26.27;;;;;;;;;;4990265;28;20057;-71
2022/11/21 05:45:39;;;;;;;70.82;23.95;;;;;;;;;;4990534;28;20034;-71
2022/11/21 05:48:06;;;;;;;74.40;25.17;;;;;;;;;;4986629;28;20014;-71
2022/11/21 05:50:32;;;;;;;76.13;25.25;;;;;;;;;;4983646;28;20296;-71
2022/11/21 05:52:59;;;;;;;84.97;27.13;;;;;;;;;;4987637;28;20018;-71
2022/11/21 05:55:25;;;;;;;84.50;26.50;;;;;;;;;;4984949;28;20471;-71
2022/11/21 05:57:50;;;;;;;70.70;27.70;;;;;;;;;;4988172;28;20050;-71
2022/11/21 06:00:15;;;;;;;79.63;25.77;;;;;;;;;;4983911;28;20269;-71
2022/11/21 06:05:24;;;;;;;93.88;28.80;;;;;;;;;;4984906;28;20037;-71
2022/11/21 06:07:49;;;;;;;96.93;28.38;;;;;;;;;;4986950;28;20018;-71
2022/11/21 06:10:15;;;;;;;96.57;29.70;;;;;;;;;;4984216;28;20028;-70
2022/11/21 06:12:40;;;;;;;93.85;31.02;;;;;;;;;;4983381;28;20770;-70
2022/11/21 06:15:05;;;;;;;91.67;28.97;;;;;;;;;;4990993;28;20022;-71
2022/11/21 06:17:31;;;;;;;96.65;29.95;;;;;;;;;;4992098;28;20328;-71
2022/11/21 06:19:56;;;;;;;77.97;28.05;;;;;;;;;;4988418;28;20022;-71
2022/11/21 06:22:21;;;;;;;96.75;29.42;;;;;;;;;;4991869;28;20494;-71
2022/11/21 06:24:46;;;;;;;100.33;29.73;;;;;;;;;;4989215;28;20489;-70
2022/11/21 06:27:12;;;;;;;93.00;30.13;;;;;;;;;;4991474;28;20265;-70
2022/11/21 06:29:37;;;;;;;92.20;29.03;;;;;;;;;;4989695;28;20631;-71
2022/11/21 06:32:02;;;;;;;83.50;27.63;;;;;;;;;;4990762;28;20324;-71
2022/11/21 06:34:27;;;;;;;85.78;28.45;;;;;;;;;;4985564;28;20252;-71
2022/11/21 06:36:53;;;;;;;94.97;28.17;;;;;;;;;;4988294;28;20018;-71
2022/11/21 06:39:18;;;;;;;105.15;28.88;;;;;;;;;;4987493;28;20125;-71
2022/11/21 06:41:49;;;;;;;89.93;31.00;;;;;;;;;;4988712;28;20049;-71
2022/11/21 06:44:14;;;;;;;93.50;30.45;;;;;;;;;;4981483;28;20092;-71
2022/11/21 06:46:40;;;;;;;98.47;30.05;;;;;;;;;;4987352;28;20034;-71
2022/11/21 06:49:05;;;;;;;84.27;27.87;;;;;;;;;;4984553;28;20579;-71
2022/11/21 06:51:30;;;;;;;84.10;29.58;;;;;;;;;;4986229;28;20254;-71
2022/11/21 06:53:56;;;;;;;90.05;29.13;;;;;;;;;;4987201;28;20032;-71
2022/11/21 06:56:24;;;;;;;86.10;28.02;;;;;;;;;;4984928;28;20030;-71
2022/11/21 06:58:50;;;;;;;83.15;26.58;;;;;;;;;;4983862;28;20037;-71
2022/11/21 07:01:15;;;;;;;86.68;26.20;;;;;;;;;;4984409;28;20019;-70
2022/11/21 07:03:40;;;;;;;74.20;24.75;;;;;;;;;;4984162;28;20033;-70
2022/11/21 07:06:06;;;;;;;92.23;27.20;;;;;;;;;;4988859;28;20109;-70
2022/11/21 07:08:32;;;;;;;75.05;25.70;;;;;;;;;;4989674;28;20269;-70
2022/11/21 07:11:01;;;;;;;63.45;23.30;;;;;;;;;;4990492;28;20077;-70
2022/11/21 07:13:27;;;;;;;65.90;22.02;;;;;;;;;;4987938;28;20029;-70
2022/11/21 07:15:53;;;;;;;49.42;17.10;;;;;;;;;;4988952;28;20022;-70
2022/11/21 07:18:19;;;;;;;38.00;14.77;;;;;;;;;;4987444;28;20026;-70
2022/11/21 07:20:45;;;;;;;31.52;13.18;;;;;;;;;;4989227;28;20027;-70
2022/11/21 07:23:10;;;;;;;34.10;13.57;;;;;;;;;;4988807;28;20037;-70
2022/11/21 07:25:35;;;;;;;29.98;13.27;;;;;;;;;;4987410;28;20646;-70
2022/11/21 07:28:01;;;;;;;36.47;12.30;;;;;;;;;;4986458;28;20022;-70
2022/11/21 07:30:27;;;;;;;38.13;13.70;;;;;;;;;;4988125;28;20416;-70
2022/11/21 07:32:56;;;;;;;40.33;14.90;;;;;;;;;;4989876;28;20057;-70
2022/11/21 07:35:21;;;;;;;39.22;14.68;;;;;;;;;;4992195;28;20427;-70
2022/11/21 07:37:46;;;;;;;35.70;15.53;;;;;;;;;;4987776;28;20098;-70
2022/11/21 07:40:11;;;;;;;37.80;16.38;;;;;;;;;;4988010;28;20276;-70
2022/11/21 07:42:37;;;;;;;41.83;16.08;;;;;;;;;;4987912;28;20167;-70
2022/11/21 07:45:03;;;;;;;37.27;15.43;;;;;;;;;;4989464;28;20068;-70
2022/11/21 07:47:28;;;;;;;41.15;15.82;;;;;;;;;;4986412;28;20273;-70
2022/11/21 07:49:53;;;;;;;34.92;15.10;;;;;;;;;;4987801;28;20026;-70
2022/11/21 07:52:18;;;;;;;28.58;15.15;;;;;;;;;;4983937;28;20018;-70
2022/11/21 07:54:43;;;;;;;44.95;13.73;;;;;;;;;;4986484;28;20553;-70
2022/11/21 07:57:09;;;;;;;33.00;12.27;;;;;;;;;;4987109;28;20532;-70
2022/11/21 07:59:34;;;;;;;29.30;10.13;;;;;;;;;;4986498;28;20269;-70
2022/11/21 08:01:59;;;;;;;30.65;13.50;;;;;;;;;;4988283;28;20269;-70
2022/11/21 08:04:24;;;;;;;40.28;15.63;;;;;;;;;;4992686;28;20390;-70
2022/11/21 08:06:50;;;;;;;26.48;13.57;;;;;;;;;;4986935;28;20101;-71
2022/11/21 08:09:15;;;;;;;26.95;13.48;;;;;;;;;;4988428;28;20018;-70
2022/11/21 08:11:40;;;;;;;28.05;12.07;;;;;;;;;;4988486;28;20026;-69
2022/11/21 08:14:05;;;;;;;22.40;12.70;;;;;;;;;;4984667;28;20050;-70
2022/11/21 08:16:31;;;;;;;30.42;11.75;;;;;;;;;;4985940;28;20105;-71
2022/11/21 08:18:57;;;;;;;32.65;10.68;;;;;;;;;;4983488;28;20233;-71
2022/11/21 08:21:22;;;;;;;29.35;11.15;;;;;;;;;;4986412;28;20027;-71
2022/11/21 08:23:47;;;;;;;26.50;12.07;;;;;;;;;;4986114;28;20022;-71
2022/11/21 08:26:12;;;;;;;18.38;10.52;;;;;;;;;;4986097;28;20311;-70
2022/11/21 08:28:38;;;;;;;19.33;9.70;;;;;;;;;;4986711;28;20019;-70
2022/11/21 08:31:03;;;;;;;18.73;6.47;;;;;;;;;;4986984;28;20788;-70
2022/11/21 08:33:29;;;;;;;21.38;9.18;;;;;;;;;;4989805;28;20026;-70
2022/11/21 08:35:54;;;;;;;21.65;10.05;;;;;;;;;;4991327;28;20050;-70
2022/11/21 08:38:19;;;;;;;19.63;7.13;;;;;;;;;;4988661;28;20058;-70
2022/11/21 08:40:44;;;;;;;23.03;8.40;;;;;;;;;;4986369;28;20101;-71
2022/11/21 08:43:09;;;;;;;23.67;8.77;;;;;;;;;;4989264;28;20293;-70
2022/11/21 08:45:35;;;;;;;20.23;9.23;;;;;;;;;;4991356;28;20336;-71
2022/11/21 08:48:01;;;;;;;24.67;9.07;;;;;;;;;;4986973;28;20029;-70
2022/11/21 08:50:27;;;;;;;20.17;7.93;;;;;;;;;;4992993;28;20026;-70
2022/11/21 08:52:52;;;;;;;22.38;9.70;;;;;;;;;;4992355;28;20471;-70
2022/11/21 08:55:17;;;;;;;22.65;7.25;;;;;;;;;;4993128;28;20042;-70
2022/11/21 08:57:42;;;;;;;18.42;8.63;;;;;;;;;;4993281;28;20164;-71
2022/11/21 09:00:08;;;;;;;17.98;8.60;;;;;;;;;;4990854;28;20475;-70
2022/11/21 09:02:34;;;;;;;20.08;9.55;;;;;;;;;;4990531;28;20512;-70
2022/11/21 09:04:59;;;;;;;25.98;8.88;;;;;;;;;;4987985;28;20030;-70
2022/11/21 09:07:24;;;;;;;18.63;8.53;;;;;;;;;;4986658;28;20422;-70
2022/11/21 09:09:49;;;;;;;23.92;7.50;;;;;;;;;;4988804;28;20284;-70
2022/11/21 09:12:14;;;;;;;16.20;5.40;;;;;;;;;;4988583;28;20144;-70
2022/11/21 09:20:08;;;;;;;29.10;9.63;;;;;;;;;;4989306;28;20544;-71
2022/11/21 09:22:33;;;;;;;19.25;9.20;;;;;;;;;;4989568;28;20030;-71
2022/11/21 09:24:58;;;;;;;25.50;9.67;;;;;;;;;;4989297;28;20026;-71
2022/11/21 09:27:23;;;;;;;22.58;8.73;;;;;;;;;;4988435;28;20357;-71
2022/11/21 09:29:48;;;;;;;21.00;9.57;;;;;;;;;;4989323;28;20022;-70
2022/11/21 09:32:14;;;;;;;19.52;8.82;;;;;;;;;;4989151;28;20446;-71
2022/11/21 09:34:39;;;;;;;19.73;9.20;;;;;;;;;;4990605;28;20014;-71
2022/11/21 09:37:04;;;;;;;18.75;8.27;;;;;;;;;;4992870;28;20018;-71
2022/11/21 09:39:30;;;;;;;15.55;4.90;;;;;;;;;;4990986;28;20050;-71
2022/11/21 09:42:07;;;;;;;28.42;9.18;;;;;;;;;;4992030;28;20017;-71
2022/11/21 09:44:32;;;;;;;27.77;9.55;;;;;;;;;;4992191;28;20023;-71
2022/11/21 09:47:10;;;;;;;18.67;8.05;;;;;;;;;;4993913;28;20021;-71
2022/11/21 09:49:39;;;;;;;9.48;3.95;;;;;;;;;;4985988;28;20034;-71
2022/11/21 09:52:05;;;;;;;22.73;9.90;;;;;;;;;;4986821;28;20029;-71
2022/11/21 09:54:32;;;;;;;18.52;8.23;;;;;;;;;;4987430;28;20430;-71
2022/11/21 09:56:58;;;;;;;22.67;8.40;;;;;;;;;;4986463;28;20022;-71
2022/11/21 09:59:34;;;;;;;19.38;8.52;;;;;;;;;;4989776;28;20019;-70
2022/11/21 10:01:59;;;;;;;17.58;7.53;;;;;;;;;;4988873;28;20022;-71
2022/11/21 10:04:25;;;;;;;19.50;8.73;;;;;;;;;;4990083;28;20372;-70
2022/11/21 10:06:54;;;;;;;19.63;9.93;;;;;;;;;;4989550;28;20452;-70
2022/11/21 10:09:19;;;;;;;13.38;7.80;;;;;;;;;;4990142;28;20026;-70
2022/11/21 10:14:42;;;;;;;16.00;6.53;;;;;;;;;;4988989;28;22150;-70
2022/11/21 10:17:20;;;;;;;22.63;8.35;;;;;;;;;;4986602;28;20105;-70
2022/11/21 10:19:48;;;;;;;28.25;10.68;;;;;;;;;;4989469;28;20385;-71
2022/11/21 10:22:19;;;;;;;26.30;9.45;;;;;;;;;;4988199;28;20015;-71
2022/11/21 10:24:45;;;;;;;14.07;5.55;;;;;;;;;;4989243;28;20026;-70
2022/11/21 10:27:15;;;;;;;26.73;10.02;;;;;;;;;;4989775;28;20169;-70
2022/11/21 10:29:44;;;;;;;27.60;10.90;;;;;;;;;;4987031;28;20027;-70
2022/11/21 10:32:09;;;;;;;24.30;8.68;;;;;;;;;;4988873;28;20026;-70
2022/11/21 10:34:36;;;;;;;18.25;7.72;;;;;;;;;;4989701;28;20021;-70
2022/11/21 10:37:06;;;;;;;28.17;7.55;;;;;;;;;;4991565;28;20022;-70
2022/11/21 10:39:37;;;;;;;18.55;9.07;;;;;;;;;;4988537;28;20064;-71
2022/11/21 10:42:15;;;;;;;21.60;8.93;;;;;;;;;;4986932;28;20088;-70
2022/11/21 10:47:30;;;;;;;14.02;4.75;;;;;;;;;;4989069;28;20107;-70
2022/11/21 10:50:01;;;;;;;17.48;7.72;;;;;;;;;;4991508;28;20103;-70
2022/11/21 10:52:29;;;;;;;11.40;6.00;;;;;;;;;;4985786;28;20480;-70
2022/11/21 10:55:01;;;;;;;16.52;7.03;;;;;;;;;;4987864;28;20026;-71
2022/11/21 10:57:28;;;;;;;13.70;5.43;;;;;;;;;;4987570;28;20011;-70
2022/11/21 11:00:02;;;;;;;16.33;6.10;;;;;;;;;;4988091;28;20124;-70
2022/11/21 11:02:27;;;;;;;14.45;6.93;;;;;;;;;;4986536;28;20023;-71
2022/11/21 11:05:28;;;;;;;11.55;5.70;;;;;;;;;;4991692;28;20434;-70
2022/11/21 11:07:53;;;;;;;;;;;;;;;;;;4923034;29;20107;-71
2022/11/21 11:10:22;;;;;;;26.50;8.05;;;;;;;;;;4976038;28;20007;-70
2022/11/21 11:15:31;;;;;;;15.30;6.22;;;;;;;;;;4990155;28;20529;-69
2022/11/21 11:17:58;;;;;;;19.38;6.00;;;;;;;;;;4984655;28;20026;-70
2022/11/21 11:20:37;;;;;;;16.90;5.88;;;;;;;;;;4985179;28;20027;-70
2022/11/21 11:23:24;;;;;;;12.75;3.72;;;;;;;;;;4984326;28;20042;-70
2022/11/21 11:25:52;;;;;;;13.32;5.00;;;;;;;;;;4981438;28;20033;-71
2022/11/21 11:28:23;;;;;;;17.63;5.93;;;;;;;;;;4986812;28;20058;-71
2022/11/21 11:30:49;;;;;;;15.43;6.13;;;;;;;;;;4988544;28;20026;-71
2022/11/21 11:33:27;;;;;;;8.25;2.60;;;;;;;;;;4982373;28;20033;-70
2022/11/21 11:35:53;;;;;;;10.88;4.40;;;;;;;;;;4982525;28;20374;-69
2022/11/21 11:38:20;;;;;;;19.25;4.55;;;;;;;;;;4990955;28;20030;-69
2022/11/21 11:40:45;;;;;;;9.20;4.25;;;;;;;;;;4993781;28;20033;-70
2022/11/21 11:50:12;;;;;;;14.38;3.90;;;;;;;;;;4932679;29;20115;-71
2022/11/21 11:52:42;;;;;;;11.73;2.72;;;;;;;;;;4972450;28;20046;-72
2022/11/21 11:55:14;;;;;;;7.13;2.40;;;;;;;;;;4992708;28;20018;-72
2022/11/21 11:57:40;;;;;;;9.40;2.10;;;;;;;;;;4993557;28;20053;-71
2022/11/21 12:00:23;;;;;;;7.22;2.22;;;;;;;;;;4990986;28;20049;-71
2022/11/21 12:03:07;;;;;;;1.63;0.77;;;;;;;;;;4989554;28;20097;-70
2022/11/21 12:05:34;;;;;;;4.50;1.25;;;;;;;;;;4988605;28;20538;-70
2022/11/21 12:08:22;;;;;;;5.68;1.35;;;;;;;;;;5000544;28;20026;-70
2022/11/21 12:13:38;;;;;;;9.02;1.65;;;;;;;;;;4989850;28;20061;-71
2022/11/21 12:16:07;;;;;;;4.38;1.40;;;;;;;;;;4990449;28;20023;-71
2022/11/21 12:18:54;;;;;;;3.13;1.85;;;;;;;;;;4997876;28;20060;-70
2022/11/21 12:21:20;;;;;;;3.33;1.20;;;;;;;;;;4985062;28;20018;-70
2022/11/21 12:23:52;;;;;;;2.00;1.27;;;;;;;;;;4988244;28;20022;-71
2022/11/21 12:26:35;;;;;;;8.50;1.40;;;;;;;;;;4984119;28;20504;-70
2022/11/21 12:29:00;;;;;;;2.67;0.73;;;;;;;;;;4986584;28;20574;-70
2022/11/21 12:31:44;;;;;;;5.47;1.10;;;;;;;;;;4989764;28;20069;-74
2022/11/21 12:34:24;;;;;;;1.38;0.60;;;;;;;;;;4987690;28;20027;-71
2022/11/21 12:37:01;;;;;;;8.70;1.25;;;;;;;;;;4989463;28;20015;-70
2022/11/21 12:39:42;;;;;;;0.82;0.30;;;;;;;;;;4989825;28;20031;-71
2022/11/21 12:45:20;;;;;;;3.83;0.90;;;;;;;;;;4985804;28;20029;-73
2022/11/21 12:56:48;;;;;;;5.22;0.95;;;;;;;;;;4998804;28;20032;-69
2022/11/21 12:59:13;;;;;;;2.80;0.93;;;;;;;;;;5004510;28;20027;-70
2022/11/21 13:01:38;;;;;;;3.53;0.85;;;;;;;;;;4996506;28;20018;-70
2022/11/21 13:04:16;;;;;;;7.75;1.23;;;;;;;;;;5003029;28;20052;-70
2022/11/21 13:06:42;;;;;;;5.25;0.80;;;;;;;;;;4997114;28;20445;-70
2022/11/21 13:09:11;;;;;;;2.05;0.70;;;;;;;;;;4997669;28;20025;-69
2022/11/21 13:11:58;;;;;;;3.28;0.90;;;;;;;;;;5008342;28;20057;-68
2022/11/21 13:14:33;;;;;;;5.90;1.00;;;;;;;;;;4988838;28;20126;-70
2022/11/21 13:17:17;;;;;;;4.57;1.20;;;;;;;;;;5000656;28;20037;-69
2022/11/21 13:20:01;;;;;;;3.60;0.88;;;;;;;;;;4996011;28;20021;-70
2022/11/21 13:22:49;;;;;;;4.18;0.40;;;;;;;;;;4992717;28;21687;-68
2022/11/21 13:25:33;;;;;;;2.90;0.80;;;;;;;;;;4990540;28;20041;-70
2022/11/21 13:28:14;;;;;;;6.43;1.48;;;;;;;;;;4988095;28;20085;-69
2022/11/21 13:30:48;;;;;;;0.85;0.50;;;;;;;;;;4991874;28;20018;-70
2022/11/21 13:33:32;;;;;;;13.75;1.58;;;;;;;;;;4991004;28;20022;-70
2022/11/21 13:35:57;;;;;;;4.22;0.75;;;;;;;;;;4984712;28;20033;-70
2022/11/21 13:38:23;;;;;;;8.52;1.10;;;;;;;;;;4994407;28;22287;-70
2022/11/21 13:43:32;;;;;;;1.23;0.32;;;;;;;;;;4996763;28;20293;-69
2022/11/21 13:45:58;;;;;;;2.57;1.00;;;;;;;;;;4988529;28;20625;-70
2022/11/21 13:48:35;;;;;;;1.92;0.60;;;;;;;;;;4985471;28;20274;-68
2022/11/21 13:51:03;;;;;;;4.30;0.80;;;;;;;;;;4997869;28;20030;-69
2022/11/21 13:53:47;;;;;;;12.02;0.50;;;;;;;;;;4994757;28;20014;-69
2022/11/21 13:56:31;;;;;;;4.95;0.93;;;;;;;;;;4996161;28;20097;-69
2022/11/21 13:58:56;;;;;;;5.93;1.20;;;;;;;;;;4986517;28;20010;-70
2022/11/21 14:01:46;;;;;;;4.22;0.80;;;;;;;;;;4987885;28;20018;-70
2022/11/21 14:04:30;;;;;;;8.05;1.25;;;;;;;;;;4989070;28;20015;-69
2022/11/21 14:07:15;;;;;;;2.88;0.68;;;;;;;;;;4986138;28;20046;-70
2022/11/21 14:09:45;;;;;;;4.80;0.80;;;;;;;;;;5002273;28;20030;-70
2022/11/21 14:12:22;;;;;;;4.15;0.95;;;;;;;;;;4995052;28;20018;-70
2022/11/21 14:15:07;;;;;;;3.83;0.90;;;;;;;;;;4994882;28;20084;-70
2022/11/21 14:17:38;;;;;;;1.65;0.73;;;;;;;;;;4997809;28;20050;-70
2022/11/21 14:20:12;;;;;;;6.40;1.13;;;;;;;;;;4990033;28;20031;-69
2022/11/21 14:22:42;;;;;;;8.27;0.90;;;;;;;;;;4988330;28;20022;-70
2022/11/21 14:25:09;;;;;;;7.60;1.02;;;;;;;;;;4984443;28;20553;-70
2022/11/21 14:27:37;;;;;;;1.08;0.60;;;;;;;;;;4990052;28;20041;-69
2022/11/21 14:30:02;;;;;;;2.83;0.88;;;;;;;;;;4992457;28;20101;-70
2022/11/21 14:32:28;;;;;;;4.00;0.52;;;;;;;;;;4993163;28;20113;-69
2022/11/21 14:35:07;;;;;;;4.35;0.63;;;;;;;;;;5000444;28;20025;-70
2022/11/21 14:37:32;;;;;;;1.48;0.45;;;;;;;;;;4999244;28;20019;-67
2022/11/21 14:39:59;;;;;;;1.70;0.60;;;;;;;;;;5000412;28;20093;-67
2022/11/21 14:42:33;;;;;;;5.68;1.15;;;;;;;;;;4986196;28;21194;-70
2022/11/21 14:45:05;;;;;;;4.70;1.20;;;;;;;;;;4986962;28;20026;-69
2022/11/21 14:47:30;;;;;;;2.72;0.85;;;;;;;;;;4986292;28;20026;-69
2022/11/21 14:49:55;;;;;;;5.43;0.90;;;;;;;;;;4992634;28;20027;-69
2022/11/21 14:52:28;;;;;;;3.60;1.02;;;;;;;;;;4993282;28;20019;-70
2022/11/21 14:54:58;;;;;;;9.60;2.00;;;;;;;;;;4986767;28;20029;-70
2022/11/21 14:57:28;;;;;;;11.35;2.40;;;;;;;;;;4993981;28;20019;-69
2022/11/21 14:59:56;;;;;;;8.38;1.88;;;;;;;;;;4998199;28;20069;-69
2022/11/21 15:02:22;;;;;;;11.35;1.33;;;;;;;;;;4992376;28;20066;-69
2022/11/21 15:04:48;;;;;;;7.70;1.55;;;;;;;;;;4988303;28;20020;-70
2022/11/21 15:07:18;;;;;;;3.30;1.30;;;;;;;;;;5000814;28;20370;-70
2022/11/21 15:09:43;;;;;;;2.10;1.05;;;;;;;;;;4994804;28;20138;-68
2022/11/21 15:12:10;;;;;;;7.13;1.38;;;;;;;;;;4996418;28;20034;-70
2022/11/21 15:14:37;;;;;;;12.75;1.35;;;;;;;;;;4985514;28;20034;-70
2022/11/21 15:17:05;;;;;;;2.35;1.10;;;;;;;;;;4985399;28;20019;-69
2022/11/21 15:19:31;;;;;;;3.13;0.88;;;;;;;;;;4993991;28;20023;-69